sensor_id;sensor_type;location;lat;lon;timestamp;pressure;altitude;pressure_sealevel;temperature;humidity
73457;BME280;61691;53.072;6.582;2023-02-16T02:46:32;102170.44;;;4.88;75.87
73457;BME280;61691;53.072;6.582;2023-02-16T02:49:00;102131.94;;;4.67;75.73
73457;BME280;61691;53.072;6.582;2023-02-16T02:51:27;102163.34;;;4.90;75.68
73457;BME280;61691;53.072;6.582;2023-02-16T02:59:39;102143.72;;;4.79;76.21
73457;BME280;61691;53.072;6.582;2023-02-16T03:02:29;102143.44;;;4.85;75.98
73457;BME280;61691;53.072;6.582;2023-02-16T03:04:58;102120.53;;;4.68;75.53
73457;BME280;61691;53.072;6.582;2023-02-16T03:07:26;102148.63;;;4.86;75.62
73457;BME280;61691;53.072;6.582;2023-02-16T03:10:18;102165.63;;;4.98;75.80
73457;BME280;61691;53.072;6.582;2023-02-16T03:13:08;102158.53;;;5.00;76.24
73457;BME280;61691;53.072;6.582;2023-02-16T03:15:38;102129.19;;;4.90;75.73
73457;BME280;61691;53.072;6.582;2023-02-16T03:18:08;102141.00;;;5.00;76.10
73457;BME280;61691;53.072;6.582;2023-02-16T03:20:55;102080.19;;;4.69;76.41
73457;BME280;61691;53.072;6.582;2023-02-16T03:23:42;102140.41;;;5.14;76.09
73457;BME280;61691;53.072;6.582;2023-02-16T03:26:30;102124.50;;;5.17;76.03
73457;BME280;61691;53.072;6.582;2023-02-16T03:29:17;102136.44;;;5.24;76.56
73457;BME280;61691;53.072;6.582;2023-02-16T03:31:50;102140.56;;;5.30;76.00
73457;BME280;61691;53.072;6.582;2023-02-16T03:34:19;102128.22;;;5.32;76.06
73457;BME280;61691;53.072;6.582;2023-02-16T03:36:49;102063.22;;;4.96;76.27
73457;BME280;61691;53.072;6.582;2023-02-16T03:39:17;102126.09;;;5.40;76.30
73457;BME280;61691;53.072;6.582;2023-02-16T03:41:49;102128.50;;;5.44;76.54
73457;BME280;61691;53.072;6.582;2023-02-16T03:44:16;102101.13;;;5.30;76.32
73457;BME280;61691;53.072;6.582;2023-02-16T03:46:44;102133.53;;;5.49;76.53
73457;BME280;61691;53.072;6.582;2023-02-16T03:49:11;102128.94;;;5.54;76.16
73457;BME280;61691;53.072;6.582;2023-02-16T03:51:37;102139.09;;;5.62;76.02
73457;BME280;61691;53.072;6.582;2023-02-16T03:54:04;102128.16;;;5.52;76.48
73457;BME280;61691;53.072;6.582;2023-02-16T03:56:31;102135.47;;;5.64;76.54
73457;BME280;61691;53.072;6.582;2023-02-16T03:58:58;102134.19;;;5.73;76.38
73457;BME280;61691;53.072;6.582;2023-02-16T04:01:25;102125.22;;;5.77;76.28
73457;BME280;61691;53.072;6.582;2023-02-16T04:03:51;102106.25;;;5.70;76.20
73457;BME280;61691;53.072;6.582;2023-02-16T04:06:18;102098.50;;;5.67;76.09
73457;BME280;61691;53.072;6.582;2023-02-16T04:08:45;102101.00;;;5.70;75.92
73457;BME280;61691;53.072;6.582;2023-02-16T04:11:12;102114.41;;;5.83;75.97
73457;BME280;61691;53.072;6.582;2023-02-16T04:13:57;102110.13;;;5.80;76.30
73457;BME280;61691;53.072;6.582;2023-02-16T04:16:24;102095.44;;;5.76;75.99
73457;BME280;61691;53.072;6.582;2023-02-16T04:18:51;102114.63;;;5.97;75.92
73457;BME280;61691;53.072;6.582;2023-02-16T04:21:18;102092.44;;;5.84;75.95
73457;BME280;61691;53.072;6.582;2023-02-16T04:23:44;102115.34;;;6.01;76.24
73457;BME280;61691;53.072;6.582;2023-02-16T04:26:11;102085.41;;;5.84;75.64
73457;BME280;61691;53.072;6.582;2023-02-16T04:28:38;102104.03;;;5.99;75.74
73457;BME280;61691;53.072;6.582;2023-02-16T04:31:04;102115.84;;;6.09;75.72
73457;BME280;61691;53.072;6.582;2023-02-16T04:33:32;102116.47;;;6.14;75.69
73457;BME280;61691;53.072;6.582;2023-02-16T04:35:59;102113.09;;;6.10;75.94
73457;BME280;61691;53.072;6.582;2023-02-16T04:38:25;102115.53;;;6.15;75.59
73457;BME280;61691;53.072;6.582;2023-02-16T04:40:52;102052.13;;;5.83;76.08
73457;BME280;61691;53.072;6.582;2023-02-16T04:43:19;102110.16;;;6.16;75.66
73457;BME280;61691;53.072;6.582;2023-02-16T04:45:46;102127.16;;;6.28;76.02
73457;BME280;61691;53.072;6.582;2023-02-16T04:48:12;102103.13;;;6.17;75.59
73457;BME280;61691;53.072;6.582;2023-02-16T04:50:39;102113.94;;;6.30;75.61
73457;BME280;61691;53.072;6.582;2023-02-16T04:53:06;102118.03;;;6.35;75.51
73457;BME280;61691;53.072;6.582;2023-02-16T04:55:33;102093.44;;;6.17;75.83
73457;BME280;61691;53.072;6.582;2023-02-16T04:58:00;102115.06;;;6.24;75.50
73457;BME280;61691;53.072;6.582;2023-02-16T05:00:27;102120.81;;;6.32;75.40
73457;BME280;61691;53.072;6.582;2023-02-16T05:02:53;102095.16;;;6.18;75.69
73457;BME280;61691;53.072;6.582;2023-02-16T05:05:20;102123.16;;;6.38;75.86
73457;BME280;61691;53.072;6.582;2023-02-16T05:07:47;102110.38;;;6.31;75.48
73457;BME280;61691;53.072;6.582;2023-02-16T05:10:14;102085.16;;;6.25;75.30
73457;BME280;61691;53.072;6.582;2023-02-16T05:12:40;102098.66;;;6.36;75.58
73457;BME280;61691;53.072;6.582;2023-02-16T05:15:26;102100.06;;;6.43;75.50
73457;BME280;61691;53.072;6.582;2023-02-16T05:17:52;102106.25;;;6.42;75.61
73457;BME280;61691;53.072;6.582;2023-02-16T05:20:19;102106.78;;;6.49;75.20
73457;BME280;61691;53.072;6.582;2023-02-16T05:23:06;102079.31;;;6.37;75.66
73457;BME280;61691;53.072;6.582;2023-02-16T05:25:33;102108.56;;;6.48;75.26
73457;BME280;61691;53.072;6.582;2023-02-16T05:27:59;102116.41;;;6.50;75.49
73457;BME280;61691;53.072;6.582;2023-02-16T05:30:26;102078.66;;;6.32;75.26
73457;BME280;61691;53.072;6.582;2023-02-16T05:32:53;102124.25;;;6.51;75.78
73457;BME280;61691;53.072;6.582;2023-02-16T05:35:20;102082.47;;;6.27;75.71
73457;BME280;61691;53.072;6.582;2023-02-16T05:37:47;102090.75;;;6.36;75.13
73457;BME280;61691;53.072;6.582;2023-02-16T05:40:14;102088.13;;;6.36;75.50
73457;BME280;61691;53.072;6.582;2023-02-16T05:42:40;102109.28;;;6.52;75.17
73457;BME280;61691;53.072;6.582;2023-02-16T05:45:07;102085.50;;;6.36;75.17
73457;BME280;61691;53.072;6.582;2023-02-16T05:47:34;102105.72;;;6.53;75.19
73457;BME280;61691;53.072;6.582;2023-02-16T05:50:01;102101.59;;;6.47;75.35
73457;BME280;61691;53.072;6.582;2023-02-16T05:52:28;102096.50;;;6.44;75.44
73457;BME280;61691;53.072;6.582;2023-02-16T05:54:55;102109.81;;;6.58;75.20
73457;BME280;61691;53.072;6.582;2023-02-16T05:57:21;102100.34;;;6.54;75.08
73457;BME280;61691;53.072;6.582;2023-02-16T05:59:48;102098.75;;;6.52;74.97
73457;BME280;61691;53.072;6.582;2023-02-16T06:02:15;102103.84;;;6.55;75.38
73457;BME280;61691;53.072;6.582;2023-02-16T06:04:42;102039.78;;;6.20;75.36
73457;BME280;61691;53.072;6.582;2023-02-16T06:07:09;102099.34;;;6.57;75.15
73457;BME280;61691;53.072;6.582;2023-02-16T06:09:37;102082.88;;;6.53;74.99
73457;BME280;61691;53.072;6.582;2023-02-16T06:12:05;102097.56;;;6.57;75.22
73457;BME280;61691;53.072;6.582;2023-02-16T06:14:32;102079.38;;;6.53;75.25
73457;BME280;61691;53.072;6.582;2023-02-16T06:16:58;102092.31;;;6.57;75.08
73457;BME280;61691;53.072;6.582;2023-02-16T06:19:27;102064.25;;;6.39;75.26
73457;BME280;61691;53.072;6.582;2023-02-16T06:21:54;102085.72;;;6.49;74.98
73457;BME280;61691;53.072;6.582;2023-02-16T06:24:21;102101.00;;;6.59;74.91
73457;BME280;61691;53.072;6.582;2023-02-16T06:26:48;102111.22;;;6.66;75.35
73457;BME280;61691;53.072;6.582;2023-02-16T06:29:14;102082.69;;;6.56;74.83
73457;BME280;61691;53.072;6.582;2023-02-16T06:31:41;102089.34;;;6.64;74.90
73457;BME280;61691;53.072;6.582;2023-02-16T06:34:08;102087.03;;;6.57;75.27
73457;BME280;61691;53.072;6.582;2023-02-16T06:36:36;102089.53;;;6.60;75.18
73457;BME280;61691;53.072;6.582;2023-02-16T06:39:03;102110.22;;;6.68;74.91
73457;BME280;61691;53.072;6.582;2023-02-16T06:41:30;102098.19;;;6.63;74.84
73457;BME280;61691;53.072;6.582;2023-02-16T06:43:59;102111.22;;;6.66;74.86
73457;BME280;61691;53.072;6.582;2023-02-16T06:46:26;102099.81;;;6.65;75.22
73457;BME280;61691;53.072;6.582;2023-02-16T06:48:53;102096.34;;;6.65;74.76
73457;BME280;61691;53.072;6.582;2023-02-16T06:51:20;102105.69;;;6.70;75.00
73457;BME280;61691;53.072;6.582;2023-02-16T06:53:47;102072.41;;;6.52;75.07
73457;BME280;61691;53.072;6.582;2023-02-16T06:56:14;102084.56;;;6.54;75.18
73457;BME280;61691;53.072;6.582;2023-02-16T06:58:41;102105.94;;;6.66;74.89
73457;BME280;61691;53.072;6.582;2023-02-16T07:01:08;102107.66;;;6.67;75.06
73457;BME280;61691;53.072;6.582;2023-02-16T07:03:35;102078.69;;;6.49;75.17
73457;BME280;61691;53.072;6.582;2023-02-16T07:06:02;102088.56;;;6.61;74.87
73457;BME280;61691;53.072;6.582;2023-02-16T07:08:29;102099.50;;;6.71;75.18
73457;BME280;61691;53.072;6.582;2023-02-16T07:10:55;102090.28;;;6.63;75.37
73457;BME280;61691;53.072;6.582;2023-02-16T07:13:22;102097.97;;;6.67;74.99
73457;BME280;61691;53.072;6.582;2023-02-16T07:15:49;102106.22;;;6.77;75.06
73457;BME280;61691;53.072;6.582;2023-02-16T07:18:16;102113.84;;;6.83;74.97
73457;BME280;61691;53.072;6.582;2023-02-16T07:20:42;102090.06;;;6.67;74.92
73457;BME280;61691;53.072;6.582;2023-02-16T07:23:09;102077.22;;;6.61;75.04
73457;BME280;61691;53.072;6.582;2023-02-16T07:25:36;102121.56;;;6.86;75.17
73457;BME280;61691;53.072;6.582;2023-02-16T07:28:03;102100.34;;;6.72;74.90
73457;BME280;61691;53.072;6.582;2023-02-16T07:30:30;102110.19;;;6.85;75.15
73457;BME280;61691;53.072;6.582;2023-02-16T07:32:56;102067.66;;;6.58;74.96
73457;BME280;61691;53.072;6.582;2023-02-16T07:35:23;102125.00;;;6.88;75.14
73457;BME280;61691;53.072;6.582;2023-02-16T07:37:50;102137.69;;;6.97;75.25
73457;BME280;61691;53.072;6.582;2023-02-16T07:40:17;102116.38;;;6.84;74.88
73457;BME280;61691;53.072;6.582;2023-02-16T07:42:44;102144.50;;;7.01;75.22
73457;BME280;61691;53.072;6.582;2023-02-16T07:45:11;102135.84;;;6.99;74.94
73457;BME280;61691;53.072;6.582;2023-02-16T07:47:37;102130.56;;;6.99;75.22
73457;BME280;61691;53.072;6.582;2023-02-16T07:50:05;102128.00;;;6.97;74.91
73457;BME280;61691;53.072;6.582;2023-02-16T07:52:32;102156.09;;;7.14;74.96
73457;BME280;61691;53.072;6.582;2023-02-16T07:55:03;102122.34;;;7.05;75.12
73457;BME280;61691;53.072;6.582;2023-02-16T07:57:30;102118.78;;;7.06;74.88
73457;BME280;61691;53.072;6.582;2023-02-16T07:59:57;102126.34;;;7.12;75.16
73457;BME280;61691;53.072;6.582;2023-02-16T08:02:24;102141.78;;;7.20;75.21
73457;BME280;61691;53.072;6.582;2023-02-16T08:04:53;102135.66;;;7.19;74.50
73457;BME280;61691;53.072;6.582;2023-02-16T08:07:20;102133.53;;;7.26;74.72
73457;BME280;61691;53.072;6.582;2023-02-16T08:09:48;102127.56;;;7.22;74.80
73457;BME280;61691;53.072;6.582;2023-02-16T08:12:15;102145.47;;;7.33;74.59
73457;BME280;61691;53.072;6.582;2023-02-16T08:14:43;102118.25;;;7.15;75.08
73457;BME280;61691;53.072;6.582;2023-02-16T08:17:12;102149.22;;;7.29;74.75
73457;BME280;61691;53.072;6.582;2023-02-16T08:19:39;102152.50;;;7.32;74.95
73457;BME280;61691;53.072;6.582;2023-02-16T08:22:07;102156.53;;;7.39;75.00
73457;BME280;61691;53.072;6.582;2023-02-16T08:24:34;102143.59;;;7.35;75.19
73457;BME280;61691;53.072;6.582;2023-02-16T08:27:03;102144.44;;;7.35;75.09
73457;BME280;61691;53.072;6.582;2023-02-16T08:29:31;102149.22;;;7.45;75.05
73457;BME280;61691;53.072;6.582;2023-02-16T08:31:58;102141.63;;;7.38;75.09
73457;BME280;61691;53.072;6.582;2023-02-16T08:34:26;102159.75;;;7.45;74.69
73457;BME280;61691;53.072;6.582;2023-02-16T08:36:54;102127.41;;;7.25;75.18
73457;BME280;61691;53.072;6.582;2023-02-16T08:39:24;102158.75;;;7.47;74.95
73457;BME280;61691;53.072;6.582;2023-02-16T08:41:52;102164.56;;;7.54;74.86
73457;BME280;61691;53.072;6.582;2023-02-16T08:44:21;102163.53;;;7.56;75.19
73457;BME280;61691;53.072;6.582;2023-02-16T08:46:50;102124.34;;;7.33;74.96
73457;BME280;61691;53.072;6.582;2023-02-16T08:49:19;102146.56;;;7.45;74.77
73457;BME280;61691;53.072;6.582;2023-02-16T08:51:50;102172.13;;;7.60;74.90
73457;BME280;61691;53.072;6.582;2023-02-16T08:54:21;102166.78;;;7.61;75.24
73457;BME280;61691;53.072;6.582;2023-02-16T08:56:49;102159.03;;;7.58;74.84
73457;BME280;61691;53.072;6.582;2023-02-16T08:59:18;102164.75;;;7.66;75.14
73457;BME280;61691;53.072;6.582;2023-02-16T09:01:45;102149.50;;;7.56;74.97
73457;BME280;61691;53.072;6.582;2023-02-16T09:04:13;102146.09;;;7.54;74.90
73457;BME280;61691;53.072;6.582;2023-02-16T09:06:43;102175.84;;;7.73;75.33
73457;BME280;61691;53.072;6.582;2023-02-16T09:09:11;102151.63;;;7.65;75.04
73457;BME280;61691;53.072;6.582;2023-02-16T09:11:39;102138.16;;;7.54;74.96
73457;BME280;61691;53.072;6.582;2023-02-16T09:14:06;102150.44;;;7.55;74.88
73457;BME280;61691;53.072;6.582;2023-02-16T09:16:35;102171.72;;;7.83;75.04
73457;BME280;61691;53.072;6.582;2023-02-16T09:19:05;102157.00;;;7.79;75.18
73457;BME280;61691;53.072;6.582;2023-02-16T09:21:32;102157.94;;;7.78;75.38
73457;BME280;61691;53.072;6.582;2023-02-16T09:24:03;102181.97;;;7.89;75.40
73457;BME280;61691;53.072;6.582;2023-02-16T09:26:33;102173.09;;;7.90;75.32
73457;BME280;61691;53.072;6.582;2023-02-16T09:29:00;102150.81;;;7.80;75.34
73457;BME280;61691;53.072;6.582;2023-02-16T09:31:30;102181.44;;;7.98;74.84
73457;BME280;61691;53.072;6.582;2023-02-16T09:34:17;102180.69;;;7.96;75.14
73457;BME280;61691;53.072;6.582;2023-02-16T09:36:45;102185.03;;;7.97;74.69
73457;BME280;61691;53.072;6.582;2023-02-16T09:39:13;102184.88;;;8.00;74.69
73457;BME280;61691;53.072;6.582;2023-02-16T09:47:02;102154.81;;;7.87;74.96
73457;BME280;61691;53.072;6.582;2023-02-16T09:49:34;102138.78;;;7.74;74.94
73457;BME280;61691;53.072;6.582;2023-02-16T09:52:18;102185.22;;;8.10;74.99
73457;BME280;61691;53.072;6.582;2023-02-16T09:54:54;102191.34;;;8.10;75.00
73457;BME280;61691;53.072;6.582;2023-02-16T09:57:53;102196.09;;;8.20;74.72
73457;BME280;61691;53.072;6.582;2023-02-16T10:08:43;102158.94;;;8.23;74.64
73457;BME280;61691;53.072;6.582;2023-02-16T10:14:04;102177.53;;;8.37;74.87
73457;BME280;61691;53.072;6.582;2023-02-16T10:16:38;102187.44;;;8.49;74.49
73457;BME280;61691;53.072;6.582;2023-02-16T10:19:35;102195.84;;;8.56;74.33
73457;BME280;61691;53.072;6.582;2023-02-16T10:22:08;102197.28;;;8.61;74.41
73457;BME280;61691;53.072;6.582;2023-02-16T10:24:48;102188.22;;;8.65;74.52
73457;BME280;61691;53.072;6.582;2023-02-16T10:27:19;102172.56;;;8.62;74.62
73457;BME280;61691;53.072;6.582;2023-02-16T10:29:47;102132.25;;;8.43;74.50
73457;BME280;61691;53.072;6.582;2023-02-16T10:32:27;102144.56;;;8.58;74.38
73457;BME280;61691;53.072;6.582;2023-02-16T10:35:14;102182.78;;;8.82;74.80
73457;BME280;61691;53.072;6.582;2023-02-16T10:43:39;102179.44;;;8.95;74.84
73457;BME280;61691;53.072;6.582;2023-02-16T10:46:10;102166.16;;;8.80;74.35
73457;BME280;61691;53.072;6.582;2023-02-16T10:48:38;102190.84;;;8.95;74.43
73457;BME280;61691;53.072;6.582;2023-02-16T10:51:07;102193.59;;;8.93;74.24
73457;BME280;61691;53.072;6.582;2023-02-16T10:54:12;102192.59;;;8.80;74.81
73457;BME280;61691;53.072;6.582;2023-02-16T10:56:43;102203.00;;;8.83;74.51
73457;BME280;61691;53.072;6.582;2023-02-16T10:59:22;102200.91;;;8.74;74.90
73457;BME280;61691;53.072;6.582;2023-02-16T11:01:54;102199.19;;;8.73;74.86
73457;BME280;61691;53.072;6.582;2023-02-16T11:04:37;102204.88;;;8.81;74.87
73457;BME280;61691;53.072;6.582;2023-02-16T11:07:10;102190.06;;;8.79;75.36
73457;BME280;61691;53.072;6.582;2023-02-16T11:09:39;102207.56;;;8.96;75.33
73457;BME280;61691;53.072;6.582;2023-02-16T11:12:37;102190.59;;;9.00;75.71
73457;BME280;61691;53.072;6.582;2023-02-16T11:18:01;102188.44;;;9.06;75.16
73457;BME280;61691;53.072;6.582;2023-02-16T11:26:35;102179.94;;;9.01;75.07
73457;BME280;61691;53.072;6.582;2023-02-16T11:28:44;102180.94;;;8.99;75.12
73457;BME280;61691;53.072;6.582;2023-02-16T11:31:29;102149.19;;;8.84;75.48
73457;BME280;61691;53.072;6.582;2023-02-16T11:34:04;102202.91;;;9.15;75.39
73457;BME280;61691;53.072;6.582;2023-02-16T11:36:41;102197.78;;;9.12;76.01
73457;BME280;61691;53.072;6.582;2023-02-16T11:39:20;102201.75;;;9.19;75.48
73457;BME280;61691;53.072;6.582;2023-02-16T11:41:51;102184.56;;;9.12;75.52
73457;BME280;61691;53.072;6.582;2023-02-16T11:44:28;102186.44;;;9.10;75.71
73457;BME280;61691;53.072;6.582;2023-02-16T11:46:58;102163.00;;;9.04;75.90
73457;BME280;61691;53.072;6.582;2023-02-16T11:50:26;102190.25;;;9.20;75.58
73457;BME280;61691;53.072;6.582;2023-02-16T11:52:47;102183.44;;;9.16;76.16
73457;BME280;61691;53.072;6.582;2023-02-16T11:55:30;102187.88;;;9.15;76.08
73457;BME280;61691;53.072;6.582;2023-02-16T11:58:28;102172.66;;;9.19;76.58
73457;BME280;61691;53.072;6.582;2023-02-16T12:04:01;102160.41;;;9.32;76.07
73457;BME280;61691;53.072;6.582;2023-02-16T12:06:40;102155.66;;;9.37;75.97
73457;BME280;61691;53.072;6.582;2023-02-16T12:09:19;102147.72;;;9.37;76.01
73457;BME280;61691;53.072;6.582;2023-02-16T12:15:03;102113.81;;;9.15;76.10
73457;BME280;61691;53.072;6.582;2023-02-16T12:26:39;102117.28;;;9.58;76.78
73457;BME280;61691;53.072;6.582;2023-02-16T12:29:16;102117.72;;;9.65;76.24
73457;BME280;61691;53.072;6.582;2023-02-16T12:32:13;102120.66;;;9.75;76.22
73457;BME280;61691;53.072;6.582;2023-02-16T12:45:21;102077.34;;;9.76;76.17
73457;BME280;61691;53.072;6.582;2023-02-16T12:47:54;102107.50;;;10.00;75.95
73457;BME280;61691;53.072;6.582;2023-02-16T12:50:27;102032.56;;;9.58;75.84
73457;BME280;61691;53.072;6.582;2023-02-16T12:53:03;102089.19;;;9.97;75.61
73457;BME280;61691;53.072;6.582;2023-02-16T12:55:40;102095.00;;;10.02;75.57
73457;BME280;61691;53.072;6.582;2023-02-16T13:03:26;102074.84;;;10.14;75.25
73457;BME280;61691;53.072;6.582;2023-02-16T13:06:03;102053.81;;;10.10;75.90
73457;BME280;61691;53.072;6.582;2023-02-16T13:11:29;102049.03;;;10.30;75.45
73457;BME280;61691;53.072;6.582;2023-02-16T13:14:03;102053.41;;;10.43;75.33
73457;BME280;61691;53.072;6.582;2023-02-16T13:19:04;102042.81;;;10.56;74.99
73457;BME280;61691;53.072;6.582;2023-02-16T13:27:47;102050.88;;;10.80;73.59
73457;BME280;61691;53.072;6.582;2023-02-16T13:30:33;102054.50;;;10.79;73.71
73457;BME280;61691;53.072;6.582;2023-02-16T13:35:53;102043.88;;;10.79;73.93
73457;BME280;61691;53.072;6.582;2023-02-16T13:38:59;102029.44;;;10.83;73.62
73457;BME280;61691;53.072;6.582;2023-02-16T13:44:14;101979.81;;;10.60;73.46
73457;BME280;61691;53.072;6.582;2023-02-16T13:46:44;101994.34;;;10.79;72.86
73457;BME280;61691;53.072;6.582;2023-02-16T13:51:58;101983.38;;;10.84;73.11
73457;BME280;61691;53.072;6.582;2023-02-16T13:54:31;102006.94;;;11.01;73.00
73457;BME280;61691;53.072;6.582;2023-02-16T13:57:01;101989.22;;;10.89;72.51
73457;BME280;61691;53.072;6.582;2023-02-16T14:02:06;102007.13;;;10.98;72.37
73457;BME280;61691;53.072;6.582;2023-02-16T14:09:52;101995.50;;;10.88;71.99
73457;BME280;61691;53.072;6.582;2023-02-16T14:12:27;101968.97;;;10.75;71.85
73457;BME280;61691;53.072;6.582;2023-02-16T14:15:02;101980.63;;;10.85;71.48
73457;BME280;61691;53.072;6.582;2023-02-16T14:17:34;101970.47;;;10.79;71.51
73457;BME280;61691;53.072;6.582;2023-02-16T14:22:51;101980.00;;;10.82;70.71
73457;BME280;61691;53.072;6.582;2023-02-16T14:30:27;101969.81;;;10.76;70.73
73457;BME280;61691;53.072;6.582;2023-02-16T14:33:19;101987.97;;;10.82;70.48
73457;BME280;61691;53.072;6.582;2023-02-16T14:38:28;101983.81;;;10.78;70.97
73457;BME280;61691;53.072;6.582;2023-02-16T14:40:57;101984.66;;;10.78;70.82
73457;BME280;61691;53.072;6.582;2023-02-16T14:43:45;101943.97;;;10.54;70.64
73457;BME280;61691;53.072;6.582;2023-02-16T14:57:16;101980.53;;;10.62;70.40
73457;BME280;61691;53.072;6.582;2023-02-16T14:59:49;101971.97;;;10.58;70.30
73457;BME280;61691;53.072;6.582;2023-02-16T15:04:54;101954.38;;;10.44;70.74
73457;BME280;61691;53.072;6.582;2023-02-16T15:07:23;101980.22;;;10.54;70.79
73457;BME280;61691;53.072;6.582;2023-02-16T15:09:55;101969.75;;;10.52;70.72
73457;BME280;61691;53.072;6.582;2023-02-16T15:12:27;101972.59;;;10.49;71.10
73457;BME280;61691;53.072;6.582;2023-02-16T15:15:02;101948.63;;;10.38;71.25
73457;BME280;61691;53.072;6.582;2023-02-16T15:17:33;101970.06;;;10.47;71.37
73457;BME280;61691;53.072;6.582;2023-02-16T15:20:12;101949.47;;;10.26;72.00
73457;BME280;61691;53.072;6.582;2023-02-16T15:22:50;101971.66;;;10.37;71.93
73457;BME280;61691;53.072;6.582;2023-02-16T15:25:29;101957.97;;;10.31;71.96
73457;BME280;61691;53.072;6.582;2023-02-16T15:28:14;101962.41;;;10.30;72.32
73457;BME280;61691;53.072;6.582;2023-02-16T15:30:50;101961.03;;;10.25;72.82
73457;BME280;61691;53.072;6.582;2023-02-16T15:36:13;101966.66;;;10.20;72.53
73457;BME280;61691;53.072;6.582;2023-02-16T15:38:42;101937.56;;;10.06;72.88
73457;BME280;61691;53.072;6.582;2023-02-16T15:41:35;101958.53;;;10.09;73.36
73457;BME280;61691;53.072;6.582;2023-02-16T15:44:04;101958.00;;;10.04;73.70
73457;BME280;61691;53.072;6.582;2023-02-16T15:46:41;101941.69;;;9.85;73.92
73457;BME280;61691;53.072;6.582;2023-02-16T15:49:11;101959.38;;;9.97;74.11
73457;BME280;61691;53.072;6.582;2023-02-16T15:51:39;101949.06;;;9.92;74.52
73457;BME280;61691;53.072;6.582;2023-02-16T15:54:20;101926.41;;;9.76;74.67
73457;BME280;61691;53.072;6.582;2023-02-16T15:56:53;101953.84;;;9.87;75.06
73457;BME280;61691;53.072;6.582;2023-02-16T16:02:01;101948.97;;;9.81;75.13
73457;BME280;61691;53.072;6.582;2023-02-16T16:04:30;101900.38;;;9.55;75.49
73457;BME280;61691;53.072;6.582;2023-02-16T16:06:58;101913.44;;;9.58;75.40
73457;BME280;61691;53.072;6.582;2023-02-16T16:09:27;101941.34;;;9.77;75.71
73457;BME280;61691;53.072;6.582;2023-02-16T16:12:03;101914.91;;;9.62;75.81
73457;BME280;61691;53.072;6.582;2023-02-16T16:14:37;101927.34;;;9.75;76.25
73457;BME280;61691;53.072;6.582;2023-02-16T16:17:05;101895.94;;;9.56;76.47
73457;BME280;61691;53.072;6.582;2023-02-16T16:19:36;101903.38;;;9.63;76.30
73457;BME280;61691;53.072;6.582;2023-02-16T16:25:00;101904.00;;;9.54;76.99
73457;BME280;61691;53.072;6.582;2023-02-16T16:27:33;101911.72;;;9.57;77.06
73457;BME280;61691;53.072;6.582;2023-02-16T16:30:37;101904.00;;;9.54;77.73
73457;BME280;61691;53.072;6.582;2023-02-16T16:33:12;101895.72;;;9.46;77.29
73457;BME280;61691;53.072;6.582;2023-02-16T16:35:47;101895.50;;;9.49;77.53
73457;BME280;61691;53.072;6.582;2023-02-16T16:38:23;101896.44;;;9.48;77.87
73457;BME280;61691;53.072;6.582;2023-02-16T16:40:53;101893.28;;;9.43;77.30
73457;BME280;61691;53.072;6.582;2023-02-16T16:43:27;101861.16;;;9.22;77.61
73457;BME280;61691;53.072;6.582;2023-02-16T16:46:09;101888.06;;;9.42;78.11
73457;BME280;61691;53.072;6.582;2023-02-16T16:48:42;101886.38;;;9.41;78.40
73457;BME280;61691;53.072;6.582;2023-02-16T16:51:13;101892.50;;;9.41;78.49
73457;BME280;61691;53.072;6.582;2023-02-16T16:56:23;101887.63;;;9.35;78.30
73457;BME280;61691;53.072;6.582;2023-02-16T16:58:51;101886.69;;;9.36;78.34
73457;BME280;61691;53.072;6.582;2023-02-16T17:01:20;101887.63;;;9.35;78.79
73457;BME280;61691;53.072;6.582;2023-02-16T17:03:47;101898.44;;;9.32;79.13
73457;BME280;61691;53.072;6.582;2023-02-16T17:06:15;101880.19;;;9.27;79.18
73457;BME280;61691;53.072;6.582;2023-02-16T17:08:43;101882.94;;;9.26;79.06
73457;BME280;61691;53.072;6.582;2023-02-16T17:13:41;101860.69;;;9.16;79.03
73457;BME280;61691;53.072;6.582;2023-02-16T17:16:26;101882.94;;;9.26;79.25
73457;BME280;61691;53.072;6.582;2023-02-16T17:18:54;101872.13;;;9.16;79.84
73457;BME280;61691;53.072;6.582;2023-02-16T17:21:21;101853.53;;;9.04;79.34
73457;BME280;61691;53.072;6.582;2023-02-16T17:23:48;101835.66;;;8.95;79.78
73457;BME280;61691;53.072;6.582;2023-02-16T17:26:20;101865.41;;;9.11;79.95
73457;BME280;61691;53.072;6.582;2023-02-16T17:28:48;101846.78;;;9.00;79.70
73457;BME280;61691;53.072;6.582;2023-02-16T17:31:15;101857.50;;;9.11;79.92
73457;BME280;61691;53.072;6.582;2023-02-16T17:33:42;101879.22;;;9.16;80.48
73457;BME280;61691;53.072;6.582;2023-02-16T17:36:11;101866.00;;;9.16;80.19
73457;BME280;61691;53.072;6.582;2023-02-16T17:38:39;101836.97;;;9.02;80.06
73457;BME280;61691;53.072;6.582;2023-02-16T17:41:06;101848.59;;;9.12;80.07
73457;BME280;61691;53.072;6.582;2023-02-16T17:43:33;101858.16;;;9.14;80.74
73457;BME280;61691;53.072;6.582;2023-02-16T17:46:00;101840.31;;;9.04;80.26
73457;BME280;61691;53.072;6.582;2023-02-16T17:48:30;101835.44;;;8.98;81.02
73457;BME280;61691;53.072;6.582;2023-02-16T17:50:58;101847.75;;;9.11;81.10
73457;BME280;61691;53.072;6.582;2023-02-16T17:53:26;101802.22;;;8.93;80.93
73457;BME280;61691;53.072;6.582;2023-02-16T17:55:55;101840.56;;;9.13;80.93
73457;BME280;61691;53.072;6.582;2023-02-16T17:58:23;101835.38;;;9.12;81.32
73457;BME280;61691;53.072;6.582;2023-02-16T18:00:51;101838.25;;;9.09;81.11
73457;BME280;61691;53.072;6.582;2023-02-16T18:03:18;101845.97;;;9.12;80.92
73457;BME280;61691;53.072;6.582;2023-02-16T18:05:45;101813.00;;;8.90;81.53
73457;BME280;61691;53.072;6.582;2023-02-16T18:08:12;101809.50;;;8.90;81.06
73457;BME280;61691;53.072;6.582;2023-02-16T18:10:51;101838.03;;;9.12;81.00
73457;BME280;61691;53.072;6.582;2023-02-16T18:13:18;101818.63;;;8.99;81.16
73457;BME280;61691;53.072;6.582;2023-02-16T18:15:47;101800.53;;;8.92;81.78
73457;BME280;61691;53.072;6.582;2023-02-16T18:18:16;101816.16;;;8.96;81.90
73457;BME280;61691;53.072;6.582;2023-02-16T18:20:44;101826.56;;;8.99;81.73